createdAt,value
2022-10-01T00:03:56.876Z,0
2022-10-01T00:09:09.133Z,0
2022-10-01T00:14:21.445Z,0
2022-10-01T00:19:33.677Z,0
2022-10-01T00:24:46.412Z,0
2022-10-01T00:29:58.727Z,0
2022-10-01T00:35:10.907Z,0
2022-10-01T00:40:23.166Z,0
2022-10-01T00:45:35.467Z,0
2022-10-01T00:50:47.816Z,0
2022-10-01T00:56:00.287Z,0
2022-10-01T01:01:12.700Z,0
2022-10-01T01:06:24.988Z,0
2022-10-01T01:11:37.233Z,0
2022-10-01T01:16:49.440Z,0
2022-10-01T01:22:01.867Z,0
2022-10-01T01:27:14.199Z,0
2022-10-01T01:32:26.611Z,0
2022-10-01T01:37:39.000Z,0
2022-10-01T01:42:51.373Z,0
2022-10-01T01:48:03.518Z,0
2022-10-01T01:53:15.878Z,0
2022-10-01T01:58:28.085Z,0
2022-10-01T02:03:40.253Z,0
2022-10-01T02:08:52.653Z,0
2022-10-01T02:14:04.866Z,0
2022-10-01T02:19:17.129Z,0
2022-10-01T02:24:29.347Z,0
2022-10-01T02:29:41.534Z,0
2022-10-01T02:34:53.959Z,0
2022-10-01T02:40:06.121Z,0
2022-10-01T02:45:18.418Z,0
2022-10-01T02:50:30.776Z,0
2022-10-01T02:55:43.160Z,0
2022-10-01T03:00:55.462Z,0
2022-10-01T03:06:07.899Z,0
2022-10-01T03:11:20.142Z,0
2022-10-01T03:16:32.256Z,0
2022-10-01T03:21:44.644Z,0
2022-10-01T03:26:56.847Z,0
2022-10-01T03:32:09.229Z,0
2022-10-01T03:37:21.510Z,0
2022-10-01T03:42:33.755Z,0
2022-10-01T03:47:45.996Z,0
2022-10-01T03:52:58.297Z,0
2022-10-01T03:58:10.626Z,0
2022-10-01T04:03:23.263Z,0
2022-10-01T04:08:35.574Z,0
2022-10-01T04:13:47.971Z,0
2022-10-01T04:19:00.224Z,0
2022-10-01T04:30:40.045Z,0
2022-10-01T04:35:52.369Z,0
2022-10-01T04:41:04.507Z,0
2022-10-01T04:46:16.912Z,0
2022-10-01T04:51:29.424Z,236
2022-10-01T04:56:41.753Z,2562
2022-10-01T05:01:54.102Z,3581
2022-10-01T05:07:06.493Z,3507
2022-10-01T05:12:22.412Z,2881
2022-10-01T05:17:31.192Z,2983
2022-10-01T05:22:43.389Z,3781
2022-10-01T05:27:55.827Z,4370
2022-10-01T05:33:08.214Z,4820
2022-10-01T05:38:20.478Z,5076
2022-10-01T05:43:32.753Z,5154
2022-10-01T05:48:45.083Z,5152
2022-10-01T05:53:57.505Z,5154
2022-10-01T05:59:09.839Z,5117
2022-10-01T06:04:22.261Z,5133
2022-10-01T06:09:34.615Z,5142
2022-10-01T06:14:47.014Z,5027
2022-10-01T06:19:59.340Z,5152
2022-10-01T06:25:11.743Z,5025
2022-10-01T06:30:24.284Z,5080
2022-10-01T06:35:36.708Z,5087
2022-10-01T06:40:48.952Z,5085
2022-10-01T06:46:01.308Z,5083
2022-10-01T06:51:13.583Z,5156
2022-10-01T06:56:26.028Z,5057
2022-10-01T07:01:38.724Z,5089
2022-10-01T07:06:50.827Z,5158
2022-10-01T07:12:03.659Z,5110
2022-10-01T07:17:15.943Z,5142
2022-10-01T07:22:28.297Z,5119
2022-10-01T07:27:40.615Z,5110
2022-10-01T07:32:52.869Z,5161
2022-10-01T07:38:05.180Z,5163
2022-10-01T07:43:18.163Z,5163
2022-10-01T07:48:30.314Z,5092
2022-10-01T07:53:42.784Z,5140
2022-10-01T07:58:55.158Z,5168
2022-10-01T08:04:07.731Z,5057
2022-10-01T08:09:20.487Z,5025
2022-10-01T08:14:32.915Z,5092
2022-10-01T08:19:45.226Z,5106
2022-10-01T08:24:57.551Z,5076
2022-10-01T08:30:10.004Z,5152
2022-10-01T08:35:22.298Z,5119
2022-10-01T08:40:34.745Z,5158
2022-10-01T08:45:47.103Z,5115
2022-10-01T08:50:59.444Z,5152
2022-10-01T08:56:11.775Z,5087
2022-10-01T09:01:24.288Z,5175
2022-10-01T09:06:36.442Z,5122
2022-10-01T09:11:48.654Z,5177
2022-10-01T09:17:01.138Z,5129
2022-10-01T09:22:13.599Z,5161
2022-10-01T09:27:25.813Z,5101
2022-10-01T09:32:38.151Z,5106
2022-10-01T09:37:50.773Z,5158
2022-10-01T09:43:03.055Z,5161
2022-10-01T09:48:15.439Z,5147
2022-10-01T09:53:27.853Z,5129
2022-10-01T09:58:39.945Z,5062
2022-10-01T10:03:52.385Z,5168
2022-10-01T10:09:04.579Z,5122
2022-10-01T10:14:16.970Z,5152
2022-10-01T10:19:29.187Z,5092
2022-10-01T10:24:41.471Z,5108
2022-10-01T10:29:53.887Z,5161
2022-10-01T10:35:06.282Z,5154
2022-10-01T10:40:18.557Z,5131
2022-10-01T10:45:30.773Z,5119
2022-10-01T10:50:43.246Z,5126
2022-10-01T10:55:55.619Z,5170
2022-10-01T11:01:07.372Z,5110
2022-10-01T11:06:19.586Z,5165
2022-10-01T11:11:31.821Z,5165
2022-10-01T11:16:44.229Z,5165
2022-10-01T11:21:56.577Z,5165
2022-10-01T11:27:08.968Z,5112
2022-10-01T11:32:21.188Z,5106
2022-10-01T11:37:33.522Z,5168
2022-10-01T11:42:45.724Z,5145
2022-10-01T11:47:58.469Z,5168
2022-10-01T11:53:10.636Z,5131
2022-10-01T11:58:22.890Z,5165
2022-10-01T12:03:35.105Z,5073
2022-10-01T12:08:47.222Z,5161
2022-10-01T12:13:59.551Z,5085
2022-10-01T12:19:12.233Z,5131
2022-10-01T12:24:24.644Z,5126
2022-10-01T12:29:37.139Z,5165
2022-10-01T12:34:53.958Z,5163
2022-10-01T12:40:01.762Z,5163
2022-10-01T12:45:13.904Z,5124
2022-10-01T12:50:26.208Z,5133
2022-10-01T12:55:38.300Z,5083
2022-10-01T13:00:50.854Z,5048
2022-10-01T13:06:03.356Z,5163
2022-10-01T13:11:16.042Z,5135
2022-10-01T13:16:28.290Z,5165
2022-10-01T13:21:40.519Z,5133
2022-10-01T13:26:52.858Z,5126
2022-10-01T13:32:05.132Z,5085
2022-10-01T13:37:17.401Z,5087
2022-10-01T13:42:29.880Z,5064
2022-10-01T13:47:42.093Z,5138
2022-10-01T13:52:54.415Z,5170
2022-10-01T13:58:06.922Z,5168
2022-10-01T14:03:19.262Z,5129
2022-10-01T14:08:31.673Z,5168
2022-10-01T14:13:44.140Z,5165
2022-10-01T14:18:56.552Z,5168
2022-10-01T14:24:09.268Z,5103
2022-10-01T14:29:21.508Z,5126
2022-10-01T14:34:34.497Z,5126
2022-10-01T14:39:46.889Z,5087
2022-10-01T14:44:59.197Z,5126
2022-10-01T14:50:11.497Z,5170
2022-10-01T14:55:23.944Z,5170
2022-10-01T15:00:36.390Z,5140
2022-10-01T15:05:48.897Z,5087
2022-10-01T15:11:01.321Z,5066
2022-10-01T15:16:13.629Z,5112
2022-10-01T15:37:03.029Z,5142
2022-10-01T15:42:15.442Z,5138
2022-10-01T15:47:27.968Z,5181
2022-10-01T15:52:40.617Z,5062
2022-10-01T15:57:52.922Z,5060
2022-10-01T16:03:05.399Z,5103
2022-10-01T16:08:18.103Z,5188
2022-10-01T16:13:30.317Z,5188
2022-10-01T16:18:42.447Z,5186
2022-10-01T16:23:54.869Z,5140
2022-10-01T16:29:07.079Z,5039
2022-10-01T16:34:19.394Z,4519
2022-10-01T16:39:31.721Z,3850
2022-10-01T16:44:44.159Z,3100
2022-10-01T16:49:56.470Z,2254
2022-10-01T16:55:08.734Z,1382
2022-10-01T17:00:20.873Z,609
2022-10-01T17:05:33.411Z,62
2022-10-01T17:10:45.550Z,0
2022-10-01T17:15:57.963Z,0
2022-10-01T17:21:10.202Z,0
2022-10-01T17:26:22.584Z,0
2022-10-01T17:31:34.785Z,0
2022-10-01T17:36:47.178Z,0
2022-10-01T17:41:59.550Z,0
2022-10-01T17:47:11.912Z,0
2022-10-01T17:52:24.253Z,0
2022-10-01T17:57:36.381Z,0
2022-10-01T18:02:48.751Z,0
2022-10-01T18:08:01.020Z,0
2022-10-01T18:13:13.344Z,0
2022-10-01T18:19:46.002Z,0
2022-10-01T18:23:38.163Z,0
2022-10-01T18:28:50.735Z,0
2022-10-01T18:34:02.822Z,0
2022-10-01T18:39:15.243Z,0
2022-10-01T18:44:27.598Z,0
2022-10-01T18:49:39.815Z,0
2022-10-01T18:54:52.131Z,0
2022-10-01T19:00:04.273Z,0
2022-10-01T19:05:16.569Z,0
2022-10-01T19:10:28.773Z,0
2022-10-01T19:15:41.019Z,0
2022-10-01T19:20:53.224Z,0
2022-10-01T19:26:05.371Z,0
2022-10-01T19:31:17.958Z,0
2022-10-01T19:36:33.734Z,0
2022-10-01T19:41:42.427Z,0
2022-10-01T19:46:54.715Z,0
2022-10-01T19:52:06.951Z,0
2022-10-01T19:57:19.392Z,0
2022-10-01T20:02:31.709Z,0
2022-10-01T20:07:43.945Z,0
2022-10-01T20:12:56.159Z,0
2022-10-01T20:18:08.292Z,0
2022-10-01T20:23:20.365Z,0
2022-10-01T20:28:32.977Z,0
2022-10-01T20:33:45.174Z,0
2022-10-01T20:38:57.667Z,0
2022-10-01T20:44:11.140Z,0
2022-10-01T20:49:36.363Z,0
2022-10-01T20:54:48.386Z,0
2022-10-01T21:00:00.723Z,0
2022-10-01T21:05:12.940Z,0
2022-10-01T21:10:25.317Z,0
2022-10-01T21:15:37.555Z,0
2022-10-01T21:20:49.887Z,0
2022-10-01T21:26:02.171Z,0
2022-10-01T21:31:14.685Z,0
2022-10-01T21:36:26.869Z,0
2022-10-01T21:41:39.012Z,0
2022-10-01T21:46:51.384Z,0
2022-10-01T21:52:03.642Z,0
2022-10-01T21:57:16.000Z,0
2022-10-01T22:02:28.536Z,0
2022-10-01T22:07:40.698Z,0
2022-10-01T22:12:52.991Z,0
2022-10-01T22:18:05.236Z,0
2022-10-01T22:23:17.679Z,0
2022-10-01T22:28:30.251Z,0
2022-10-01T22:33:42.282Z,0
2022-10-01T22:38:54.631Z,0
2022-10-01T22:44:07.035Z,0
2022-10-01T22:49:19.361Z,0
2022-10-01T22:54:31.756Z,0
2022-10-01T22:59:47.610Z,0
2022-10-01T23:05:00.375Z,0
2022-10-01T23:10:12.591Z,0
2022-10-01T23:15:25.072Z,0
2022-10-01T23:20:37.303Z,0
2022-10-01T23:25:49.647Z,0
2022-10-01T23:31:01.869Z,0
2022-10-01T23:36:14.688Z,0
2022-10-01T23:41:27.020Z,0
2022-10-01T23:46:39.294Z,0
2022-10-01T23:51:51.535Z,0
2022-10-01T23:57:03.593Z,0
